createdAt,value
2022-12-15T00:00:24.086Z,100052.34
2022-12-15T00:03:10.813Z,100050.66
2022-12-15T00:05:57.279Z,100046.78
2022-12-15T00:08:43.656Z,100048.25
2022-12-15T00:11:30.557Z,100035.94
2022-12-15T00:14:16.632Z,100032.00
2022-12-15T00:17:03.202Z,100034.97
2022-12-15T00:19:49.086Z,100022.47
2022-12-15T00:25:46.346Z,100011.53
2022-12-15T00:28:33.275Z,100011.44
2022-12-15T00:31:19.952Z,100022.69
2022-12-15T00:34:06.376Z,100023.66
2022-12-15T00:36:52.672Z,100017.97
2022-12-15T00:39:20.263Z,100018.53
2022-12-15T00:41:47.864Z,100025.06
2022-12-15T00:44:20.455Z,100029.53
2022-12-15T00:46:54.606Z,100047.53
2022-12-15T00:49:42.635Z,100043.59
2022-12-15T00:52:30.578Z,100042.41
2022-12-15T00:55:16.427Z,100048.63
2022-12-15T00:58:02.793Z,100049.28
2022-12-15T01:00:49.827Z,100050.97
2022-12-15T01:03:40.718Z,100062.09
2022-12-15T01:06:29.582Z,100063.00
2022-12-15T01:09:16.654Z,100063.97
2022-12-15T01:12:03.578Z,100064.59
2022-12-15T01:14:50.663Z,100060.97
2022-12-15T01:17:37.294Z,100061.44
2022-12-15T01:20:19.102Z,100066.84
2022-12-15T01:22:53.126Z,100072.59
2022-12-15T01:25:23.699Z,100076.50
2022-12-15T01:27:52.313Z,100077.41
2022-12-15T01:30:24.294Z,100092.81
2022-12-15T01:32:52.765Z,100080.34
2022-12-15T01:35:21.567Z,100068.69
2022-12-15T01:37:50.088Z,100070.78
2022-12-15T01:40:38.342Z,100066.13
2022-12-15T01:43:14.303Z,100073.59
2022-12-15T01:45:58.876Z,100073.31
2022-12-15T01:48:56.971Z,100079.19
2022-12-15T01:51:33.592Z,100074.41
2022-12-15T01:54:12.732Z,100079.22
2022-12-15T01:56:48.277Z,100075.63
2022-12-15T01:59:23.831Z,100076.47
2022-12-15T02:01:51.652Z,100074.78
2022-12-15T02:04:21.892Z,100076.66
2022-12-15T02:06:50.766Z,100076.53
2022-12-15T02:09:20.020Z,100081.97
2022-12-15T02:12:09.430Z,100081.06
2022-12-15T02:14:51.514Z,100085.56
2022-12-15T02:17:46.680Z,100095.09
2022-12-15T02:20:40.857Z,100085.84
2022-12-15T02:23:23.202Z,100092.66
2022-12-15T02:26:11.092Z,100094.94
2022-12-15T02:29:00.273Z,100093.19
2022-12-15T02:32:03.524Z,100089.88
2022-12-15T02:34:31.133Z,100086.31
2022-12-15T02:37:21.006Z,100085.53
2022-12-15T02:39:48.653Z,100084.38
2022-12-15T02:42:17.617Z,100084.97
2022-12-15T02:44:56.363Z,100091.34
2022-12-15T02:47:37.781Z,100090.19
2022-12-15T02:50:08.472Z,100092.03
2022-12-15T02:52:52.244Z,100091.88
2022-12-15T02:55:38.262Z,100087.47
2022-12-15T02:58:20.799Z,100075.53
2022-12-15T03:01:02.033Z,100071.84
2022-12-15T03:03:33.776Z,100064.41
2022-12-15T03:06:03.716Z,100061.78
2022-12-15T03:08:31.746Z,100060.09
2022-12-15T03:10:59.373Z,100056.41
2022-12-15T03:13:27.270Z,100044.28
2022-12-15T03:15:54.944Z,100070.84
2022-12-15T03:18:22.940Z,100074.69
2022-12-15T03:20:51.409Z,100082.00
2022-12-15T03:23:19.476Z,100086.38
2022-12-15T03:25:49.872Z,100097.38
2022-12-15T03:28:18.336Z,100095.09
2022-12-15T03:30:45.906Z,100106.69
2022-12-15T03:33:18.652Z,100101.13
2022-12-15T03:35:46.683Z,100080.72
2022-12-15T03:38:14.270Z,100088.03
2022-12-15T03:40:42.424Z,100090.91
2022-12-15T03:43:11.015Z,100087.53
2022-12-15T03:45:39.148Z,100090.59
2022-12-15T03:48:07.726Z,100097.16
2022-12-15T03:50:35.645Z,100113.41
2022-12-15T03:53:04.492Z,100133.59
2022-12-15T03:55:32.793Z,100128.13
2022-12-15T03:58:00.738Z,100126.84
2022-12-15T04:00:29.071Z,100132.94
2022-12-15T04:02:56.688Z,100141.91
2022-12-15T04:05:26.089Z,100127.56
2022-12-15T04:07:55.250Z,100134.44
2022-12-15T04:10:28.575Z,100146.38
2022-12-15T04:13:04.708Z,100144.69
2022-12-15T04:15:33.213Z,100141.59
2022-12-15T04:18:05.935Z,100148.84
2022-12-15T04:20:34.206Z,100153.72
2022-12-15T04:23:02.741Z,100160.00
2022-12-15T04:25:49.068Z,100162.41
2022-12-15T04:28:35.181Z,100146.63
2022-12-15T04:31:29.938Z,100147.31
2022-12-15T04:34:25.157Z,100167.16
2022-12-15T04:37:12.526Z,100162.97
2022-12-15T04:40:03.027Z,100157.47
2022-12-15T04:42:50.803Z,100173.44
2022-12-15T04:45:41.164Z,100181.03
2022-12-15T04:48:28.650Z,100181.56
2022-12-15T04:51:15.017Z,100183.19
2022-12-15T04:54:02.724Z,100178.91
2022-12-15T04:56:51.366Z,100195.84
2022-12-15T04:59:38.386Z,100186.34
2022-12-15T05:02:24.839Z,100194.38
2022-12-15T05:05:10.879Z,100196.84
2022-12-15T05:07:56.993Z,100185.38
2022-12-15T05:10:43.046Z,100185.56
2022-12-15T05:13:29.862Z,100172.94
2022-12-15T05:16:17.039Z,100184.97
2022-12-15T05:19:03.465Z,100183.88
2022-12-15T05:21:49.487Z,100181.13
2022-12-15T05:24:35.359Z,100182.22
2022-12-15T05:27:22.608Z,100186.59
2022-12-15T05:30:08.848Z,100194.34
2022-12-15T05:32:36.546Z,100197.22
2022-12-15T05:35:05.214Z,100190.28
2022-12-15T05:37:32.668Z,100188.28
2022-12-15T05:40:00.653Z,100202.75
2022-12-15T05:42:28.138Z,100211.81
2022-12-15T05:44:56.065Z,100225.59
2022-12-15T05:47:23.601Z,100228.63
2022-12-15T05:49:52.043Z,100233.31
2022-12-15T05:52:19.525Z,100237.38
2022-12-15T05:54:47.082Z,100231.06
2022-12-15T05:57:14.595Z,100223.25
2022-12-15T05:59:42.620Z,100232.34
2022-12-15T06:02:10.963Z,100229.44
2022-12-15T06:04:39.051Z,100232.47
2022-12-15T06:07:06.754Z,100235.38
2022-12-15T06:09:34.810Z,100235.09
2022-12-15T06:12:02.413Z,100237.28
2022-12-15T06:14:31.260Z,100237.38
2022-12-15T06:17:00.281Z,100243.00
2022-12-15T06:19:28.303Z,100257.59
2022-12-15T06:21:55.865Z,100253.28
2022-12-15T06:24:24.781Z,100256.78
2022-12-15T06:26:52.876Z,100255.66
2022-12-15T06:29:20.608Z,100269.81
2022-12-15T06:31:48.551Z,100272.78
2022-12-15T06:34:17.381Z,100282.56
2022-12-15T06:36:45.359Z,100289.44
2022-12-15T06:39:15.322Z,100296.84
2022-12-15T06:41:43.586Z,100306.91
2022-12-15T06:44:15.157Z,100317.94
2022-12-15T06:46:43.648Z,100323.84
2022-12-15T06:49:11.718Z,100325.81
2022-12-15T06:51:39.223Z,100330.31
2022-12-15T06:54:06.747Z,100332.91
2022-12-15T06:56:42.465Z,100338.50
2022-12-15T06:59:11.695Z,100333.41
2022-12-15T07:01:39.624Z,100329.25
2022-12-15T07:04:07.548Z,100341.66
2022-12-15T07:06:37.582Z,100335.16
2022-12-15T07:09:08.459Z,100339.00
2022-12-15T07:11:36.512Z,100324.53
2022-12-15T07:14:04.981Z,100326.59
2022-12-15T07:16:32.906Z,100326.28
2022-12-15T07:19:00.535Z,100335.06
2022-12-15T07:21:28.227Z,100338.22
2022-12-15T07:23:56.988Z,100335.22
2022-12-15T07:26:25.706Z,100349.84
2022-12-15T07:28:54.413Z,100346.03
2022-12-15T07:31:23.346Z,100341.34
2022-12-15T07:33:52.433Z,100346.53
2022-12-15T07:36:20.935Z,100359.09
2022-12-15T07:38:49.947Z,100370.31
2022-12-15T07:41:20.099Z,100374.28
2022-12-15T07:43:48.687Z,100370.84
2022-12-15T07:46:18.029Z,100371.25
2022-12-15T07:48:50.266Z,100365.44
2022-12-15T07:51:20.706Z,100396.00
2022-12-15T07:53:50.753Z,100406.56
2022-12-15T07:56:20.810Z,100403.41
2022-12-15T07:58:48.660Z,100403.22
2022-12-15T08:01:17.093Z,100407.25
2022-12-15T08:03:45.538Z,100413.84
2022-12-15T08:06:15.111Z,100411.69
2022-12-15T08:08:44.992Z,100419.34
2022-12-15T08:11:19.551Z,100412.38
2022-12-15T08:14:04.401Z,100426.97
2022-12-15T08:16:36.612Z,100424.25
2022-12-15T08:19:05.772Z,100429.47
2022-12-15T08:21:34.123Z,100427.16
2022-12-15T08:24:02.055Z,100427.13
2022-12-15T08:26:31.037Z,100417.47
2022-12-15T08:31:54.340Z,100396.91
2022-12-15T08:34:22.173Z,100401.88
2022-12-15T08:36:50.930Z,100390.81
2022-12-15T08:39:20.596Z,100402.41
2022-12-15T08:41:48.524Z,100396.88
2022-12-15T08:44:17.042Z,100393.69
2022-12-15T08:46:45.158Z,100383.06
2022-12-15T08:49:17.940Z,100385.41
2022-12-15T08:51:50.104Z,100384.03
2022-12-15T08:54:19.546Z,100385.72
2022-12-15T08:56:47.464Z,100382.63
2022-12-15T08:59:16.013Z,100377.53
2022-12-15T09:01:44.142Z,100388.94
2022-12-15T09:04:11.946Z,100396.09
2022-12-15T09:06:39.506Z,100398.59
2022-12-15T09:09:09.033Z,100399.06
2022-12-15T09:11:36.769Z,100410.75
2022-12-15T09:14:04.505Z,100414.97
2022-12-15T09:16:32.282Z,100418.00
2022-12-15T09:19:00.643Z,100421.91
2022-12-15T09:21:30.414Z,100426.34
2022-12-15T09:24:02.737Z,100435.94
2022-12-15T09:26:32.847Z,100420.22
2022-12-15T09:29:02.384Z,100428.97
2022-12-15T09:31:33.400Z,100425.09
2022-12-15T09:34:01.333Z,100418.03
2022-12-15T09:36:30.933Z,100410.31
2022-12-15T09:38:59.173Z,100399.97
2022-12-15T09:41:29.955Z,100404.19
2022-12-15T09:44:14.555Z,100389.97
2022-12-15T09:46:42.513Z,100386.09
2022-12-15T09:49:39.055Z,100381.56
2022-12-15T09:52:12.304Z,100375.03
2022-12-15T09:54:44.478Z,100382.75
2022-12-15T09:57:40.464Z,100382.75
2022-12-15T10:00:11.598Z,100392.13
2022-12-15T10:02:42.169Z,100393.53
2022-12-15T10:05:38.220Z,100395.50
2022-12-15T10:08:15.354Z,100412.66
2022-12-15T10:10:47.919Z,100417.41
2022-12-15T10:13:54.667Z,100404.72
2022-12-15T10:17:21.537Z,100375.31
2022-12-15T10:19:58.533Z,100375.44
2022-12-15T10:22:31.258Z,100372.16
2022-12-15T10:25:29.434Z,100370.94
2022-12-15T10:28:15.673Z,100360.97
2022-12-15T10:31:04.663Z,100352.69
2022-12-15T10:33:37.009Z,100370.81
2022-12-15T10:36:11.510Z,100395.16
2022-12-15T10:38:42.572Z,100404.94
2022-12-15T10:41:13.758Z,100407.00
2022-12-15T10:43:47.051Z,100412.28
2022-12-15T10:46:29.797Z,100410.19
2022-12-15T10:49:21.400Z,100406.69
2022-12-15T10:51:56.088Z,100391.03
2022-12-15T10:54:30.743Z,100397.72
2022-12-15T10:57:00.411Z,100405.19
2022-12-15T10:59:33.685Z,100399.88
2022-12-15T11:02:26.157Z,100400.00
2022-12-15T11:04:58.341Z,100388.66
2022-12-15T11:07:33.708Z,100381.75
2022-12-15T11:10:08.515Z,100375.78
2022-12-15T11:12:52.058Z,100367.88
2022-12-15T11:15:23.112Z,100357.66
2022-12-15T11:18:02.863Z,100351.94
2022-12-15T11:20:42.631Z,100355.38
2022-12-15T11:23:55.376Z,100344.91
2022-12-15T11:26:53.829Z,100357.13
2022-12-15T11:29:22.850Z,100349.31
2022-12-15T11:31:52.990Z,100358.63
2022-12-15T11:34:25.062Z,100358.44
2022-12-15T11:36:52.537Z,100359.75
2022-12-15T11:39:37.552Z,100341.75
2022-12-15T11:42:32.886Z,100325.44
2022-12-15T11:45:17.408Z,100316.66
2022-12-15T11:48:10.322Z,100305.88
2022-12-15T11:51:02.538Z,100301.44
2022-12-15T11:53:52.223Z,100280.41
2022-12-15T11:56:33.638Z,100275.94
2022-12-15T11:59:28.312Z,100269.69
2022-12-15T12:02:17.044Z,100259.31
2022-12-15T12:05:05.921Z,100244.16
2022-12-15T12:07:45.710Z,100231.84
2022-12-15T12:10:25.850Z,100225.06
2022-12-15T12:13:19.863Z,100218.28
2022-12-15T12:16:02.559Z,100225.84
2022-12-15T12:18:38.620Z,100215.94
2022-12-15T12:21:13.848Z,100212.25
2022-12-15T12:24:17.693Z,100216.22
2022-12-15T12:26:54.297Z,100219.09
2022-12-15T12:29:33.190Z,100212.97
2022-12-15T12:32:15.532Z,100206.25
2022-12-15T12:35:30.982Z,100213.44
2022-12-15T12:37:52.290Z,100203.84
2022-12-15T12:40:43.273Z,100195.34
2022-12-15T12:43:28.597Z,100173.28
2022-12-15T12:46:03.214Z,100170.84
2022-12-15T12:48:40.962Z,100164.63
2022-12-15T12:51:25.188Z,100163.28
2022-12-15T12:53:53.495Z,100176.91
2022-12-15T12:56:42.823Z,100180.16
2022-12-15T12:59:28.863Z,100194.59
2022-12-15T13:02:11.297Z,100180.94
2022-12-15T13:04:41.823Z,100176.88
2022-12-15T13:07:37.914Z,100169.59
2022-12-15T13:10:08.504Z,100167.72
2022-12-15T13:15:41.128Z,100165.34
2022-12-15T13:18:22.640Z,100163.22
2022-12-15T13:20:54.740Z,100160.88
2022-12-15T13:23:22.424Z,100160.69
2022-12-15T13:25:56.003Z,100145.69
2022-12-15T13:28:48.806Z,100157.41
2022-12-15T13:31:21.881Z,100160.69
2022-12-15T13:33:50.407Z,100161.97
2022-12-15T13:36:37.327Z,100162.38
2022-12-15T13:39:27.775Z,100160.47
2022-12-15T13:44:55.063Z,100171.75
2022-12-15T13:47:26.213Z,100176.00
2022-12-15T13:50:02.242Z,100173.66
2022-12-15T13:56:52.255Z,100195.56
2022-12-15T13:59:30.077Z,100181.88
2022-12-15T14:01:57.783Z,100189.47
2022-12-15T14:04:27.211Z,100189.88
2022-12-15T14:06:58.943Z,100192.75
2022-12-15T14:09:42.198Z,100194.78
2022-12-15T14:12:14.348Z,100197.47
2022-12-15T14:14:49.074Z,100196.91
2022-12-15T14:17:18.611Z,100196.28
2022-12-15T14:19:50.831Z,100204.34
2022-12-15T14:22:27.997Z,100207.25
2022-12-15T14:25:13.802Z,100194.03
2022-12-15T14:27:41.457Z,100183.41
2022-12-15T14:30:12.408Z,100184.19
2022-12-15T14:32:44.475Z,100176.97
2022-12-15T14:35:18.714Z,100175.50
2022-12-15T14:37:47.013Z,100171.63
2022-12-15T14:40:21.318Z,100164.56
2022-12-15T14:42:53.542Z,100162.03
2022-12-15T14:45:26.070Z,100153.75
2022-12-15T14:48:30.602Z,100148.53
2022-12-15T14:50:47.804Z,100145.31
2022-12-15T14:53:18.555Z,100140.94
2022-12-15T14:55:46.474Z,100137.03
2022-12-15T14:58:26.699Z,100137.44
2022-12-15T15:00:57.985Z,100133.34
2022-12-15T15:03:12.194Z,100158.28
2022-12-15T15:03:40.808Z,100134.28
2022-12-15T15:06:11.131Z,100123.91
2022-12-15T15:08:50.756Z,100128.47
2022-12-15T15:11:21.098Z,100122.44
2022-12-15T15:13:49.074Z,100107.56
2022-12-15T15:16:19.523Z,100105.56
2022-12-15T15:18:53.057Z,100093.81
2022-12-15T15:21:25.013Z,100096.50
2022-12-15T15:24:02.924Z,100089.03
2022-12-15T15:26:31.836Z,100081.81
2022-12-15T15:28:59.910Z,100069.75
2022-12-15T15:31:41.668Z,100063.25
2022-12-15T15:34:11.545Z,100054.91
2022-12-15T15:36:39.545Z,100045.81
2022-12-15T15:39:20.220Z,100040.72
2022-12-15T15:41:48.767Z,100031.06
2022-12-15T15:44:16.400Z,100020.75
2022-12-15T15:46:50.422Z,100012.28
2022-12-15T15:49:21.003Z,100008.28
2022-12-15T15:51:50.498Z,99998.69
2022-12-15T15:54:23.209Z,99980.09
2022-12-15T15:56:50.880Z,99971.00
2022-12-15T15:59:25.043Z,99958.59
2022-12-15T16:01:59.267Z,99943.06
2022-12-15T16:04:27.738Z,99931.91
2022-12-15T16:06:55.289Z,99920.63
2022-12-15T16:09:24.867Z,99921.66
2022-12-15T16:11:52.502Z,99912.47
2022-12-15T16:14:20.095Z,99932.00
2022-12-15T16:16:47.780Z,99932.13
2022-12-15T16:19:15.472Z,99930.44
2022-12-15T16:21:43.427Z,99925.34
2022-12-15T16:24:18.111Z,99926.56
2022-12-15T16:26:51.071Z,99930.28
2022-12-15T16:29:21.419Z,99918.56
2022-12-15T16:31:49.676Z,99916.06
2022-12-15T16:34:19.363Z,99916.44
2022-12-15T16:36:48.043Z,99900.63
2022-12-15T16:39:24.017Z,99891.63
2022-12-15T16:41:53.864Z,99882.13
2022-12-15T16:44:22.222Z,99870.25
2022-12-15T16:46:50.852Z,99868.41
2022-12-15T16:49:19.447Z,99859.28
2022-12-15T16:51:50.872Z,99860.06
2022-12-15T16:54:22.301Z,99853.16
2022-12-15T16:56:52.289Z,99862.78
2022-12-15T16:59:32.982Z,99866.47
2022-12-15T17:02:01.545Z,99862.50
2022-12-15T17:04:29.306Z,99851.78
2022-12-15T17:06:56.901Z,99862.34
2022-12-15T17:09:26.575Z,99848.63
2022-12-15T17:11:54.806Z,99828.06
2022-12-15T17:14:22.744Z,99818.41
2022-12-15T17:16:50.797Z,99802.44
2022-12-15T17:19:21.364Z,99818.25
2022-12-15T17:21:53.040Z,99841.44
2022-12-15T17:24:22.513Z,99852.00
2022-12-15T17:26:50.891Z,99851.16
2022-12-15T17:29:25.386Z,99858.34
2022-12-15T17:31:53.017Z,99850.72
2022-12-15T17:34:32.919Z,99847.72
2022-12-15T17:37:07.593Z,99840.09
2022-12-15T17:39:36.575Z,99849.50
2022-12-15T17:42:15.823Z,99849.88
2022-12-15T17:44:46.701Z,99857.28
2022-12-15T17:47:15.830Z,99860.78
2022-12-15T17:49:44.162Z,99867.53
2022-12-15T17:52:34.617Z,99889.09
2022-12-15T17:55:08.111Z,99893.91
2022-12-15T17:57:35.724Z,99894.03
2022-12-15T18:00:16.226Z,99886.72
2022-12-15T18:02:44.996Z,99880.75
2022-12-15T18:05:13.399Z,99890.09
2022-12-15T18:07:40.906Z,99891.00
2022-12-15T18:10:31.359Z,99888.00
2022-12-15T18:12:59.954Z,99888.06
2022-12-15T18:15:31.773Z,99893.91
2022-12-15T18:18:00.767Z,99894.38
2022-12-15T18:20:28.583Z,99892.59
2022-12-15T18:22:56.228Z,99889.44
2022-12-15T18:25:26.955Z,99883.22
2022-12-15T18:27:56.793Z,99883.69
2022-12-15T18:30:28.030Z,99862.50
2022-12-15T18:32:58.691Z,99853.00
2022-12-15T18:35:40.061Z,99845.00
2022-12-15T18:38:17.070Z,99834.97
2022-12-15T18:40:53.891Z,99825.41
2022-12-15T18:43:24.667Z,99809.91
2022-12-15T18:45:52.805Z,99800.03
2022-12-15T18:48:22.278Z,99798.53
2022-12-15T18:50:55.055Z,99784.75
2022-12-15T18:53:28.392Z,99785.91
2022-12-15T18:55:56.571Z,99790.19
2022-12-15T18:58:37.267Z,99783.69
2022-12-15T19:01:06.992Z,99777.72
2022-12-15T19:03:37.081Z,99772.09
2022-12-15T19:06:14.663Z,99767.47
2022-12-15T19:08:43.897Z,99762.59
2022-12-15T19:11:21.797Z,99754.03
2022-12-15T19:13:52.622Z,99746.97
2022-12-15T19:16:22.250Z,99743.38
2022-12-15T19:19:12.466Z,99738.56
2022-12-15T19:21:54.730Z,99742.09
2022-12-15T19:24:50.727Z,99746.13
2022-12-15T19:27:23.057Z,99742.00
2022-12-15T19:29:51.089Z,99744.38
2022-12-15T19:32:19.248Z,99748.56
2022-12-15T19:34:47.017Z,99745.03
2022-12-15T19:37:44.450Z,99743.72
2022-12-15T19:40:27.716Z,99737.66
2022-12-15T19:42:55.947Z,99737.75
2022-12-15T19:45:26.783Z,99747.63
2022-12-15T19:47:55.091Z,99759.69
2022-12-15T19:50:33.472Z,99774.09
2022-12-15T19:53:03.618Z,99778.09
2022-12-15T19:55:34.090Z,99772.34
2022-12-15T19:58:33.176Z,99766.16
2022-12-15T20:01:14.749Z,99738.16
2022-12-15T20:03:45.112Z,99702.66
2022-12-15T20:06:24.674Z,99682.56
2022-12-15T20:08:55.931Z,99665.78
2022-12-15T20:11:27.274Z,99657.88
2022-12-15T20:13:56.388Z,99641.84
2022-12-15T20:16:24.897Z,99638.03
2022-12-15T20:18:56.091Z,99630.94
2022-12-15T20:21:28.685Z,99624.41
2022-12-15T20:24:00.432Z,99635.44
2022-12-15T20:26:30.263Z,99642.31
2022-12-15T20:28:58.125Z,99642.38
2022-12-15T20:31:26.637Z,99653.22
2022-12-15T20:33:54.323Z,99639.59
2022-12-15T20:36:27.815Z,99642.88
2022-12-15T20:38:56.019Z,99652.84
2022-12-15T20:41:27.128Z,99676.22
2022-12-15T20:43:55.888Z,99694.69
2022-12-15T20:46:27.036Z,99699.94
2022-12-15T20:48:55.770Z,99702.69
2022-12-15T20:51:28.098Z,99698.63
2022-12-15T20:53:58.817Z,99678.56
2022-12-15T20:56:27.692Z,99682.00
2022-12-15T20:58:57.214Z,99690.44
2022-12-15T21:01:35.938Z,99706.97
2022-12-15T21:04:32.304Z,99717.06
2022-12-15T21:07:00.663Z,99719.56
2022-12-15T21:09:29.874Z,99725.81
2022-12-15T21:11:58.715Z,99730.91
2022-12-15T21:14:27.035Z,99735.28
2022-12-15T21:16:55.404Z,99733.44
2022-12-15T21:19:23.741Z,99746.16
2022-12-15T21:21:54.970Z,99753.56
2022-12-15T21:24:25.980Z,99757.38
2022-12-15T21:26:55.945Z,99757.47
2022-12-15T21:29:26.725Z,99764.25
2022-12-15T21:31:54.793Z,99774.31
2022-12-15T21:34:22.826Z,99770.97
2022-12-15T21:36:54.994Z,99763.47
2022-12-15T21:39:30.211Z,99745.59
2022-12-15T21:42:00.445Z,99735.75
2022-12-15T21:44:29.213Z,99735.72
2022-12-15T21:46:58.122Z,99732.44
2022-12-15T21:49:26.433Z,99725.16
2022-12-15T21:51:58.015Z,99726.47
2022-12-15T21:54:31.335Z,99726.75
2022-12-15T21:57:00.416Z,99710.94
2022-12-15T21:59:30.833Z,99712.63
2022-12-15T22:02:00.457Z,99710.47
2022-12-15T22:04:35.354Z,99728.94
2022-12-15T22:07:06.221Z,99730.09
2022-12-15T22:09:33.758Z,99712.97
2022-12-15T22:12:02.403Z,99697.94
2022-12-15T22:14:33.171Z,99683.16
2022-12-15T22:17:11.839Z,99673.66
2022-12-15T22:19:39.456Z,99669.59
2022-12-15T22:22:08.228Z,99679.72
2022-12-15T22:24:36.123Z,99674.78
2022-12-15T22:27:03.753Z,99672.53
2022-12-15T22:29:31.753Z,99677.28
2022-12-15T22:31:59.345Z,99682.19
2022-12-15T22:34:28.066Z,99673.84
2022-12-15T22:36:57.458Z,99672.91
2022-12-15T22:39:25.267Z,99679.44
2022-12-15T22:41:53.755Z,99675.19
2022-12-15T22:44:28.506Z,99678.53
2022-12-15T22:46:58.766Z,99673.78
2022-12-15T22:49:38.215Z,99670.19
2022-12-15T22:52:21.276Z,99662.53
2022-12-15T22:54:49.031Z,99664.75
2022-12-15T22:57:23.702Z,99669.63
2022-12-15T23:00:05.767Z,99668.03
2022-12-15T23:02:40.940Z,99674.91
2022-12-15T23:05:10.542Z,99668.69
2022-12-15T23:07:38.591Z,99669.41
2022-12-15T23:10:27.391Z,99676.78
2022-12-15T23:12:56.552Z,99690.63
2022-12-15T23:15:44.370Z,99689.31
2022-12-15T23:18:12.203Z,99679.00
2022-12-15T23:20:40.469Z,99685.59
2022-12-15T23:23:09.851Z,99677.09
2022-12-15T23:25:37.528Z,99683.31
2022-12-15T23:28:05.618Z,99689.56
2022-12-15T23:30:33.291Z,99689.13
2022-12-15T23:33:01.052Z,99684.31
2022-12-15T23:35:29.006Z,99694.00
2022-12-15T23:37:57.996Z,99690.38
2022-12-15T23:40:25.647Z,99690.19
2022-12-15T23:42:53.954Z,99683.22
2022-12-15T23:45:23.359Z,99692.25
2022-12-15T23:47:51.492Z,99678.31
2022-12-15T23:50:19.785Z,99656.59
2022-12-15T23:52:51.711Z,99664.78
2022-12-15T23:55:19.649Z,99658.53
2022-12-15T23:57:49.272Z,99654.38
